Time;durP1;ratioP1;P1;durP2;ratioP2;P2;SDS_P1;SDS_P2;PMS_P1;PMS_P2;Temp;Humidity;BMP_temperature;BMP_pressure;BME280_temperature;BME280_humidity;BME280_pressure;Samples;Min_cycle;Max_cycle;Signal;HPM_P1;HPM_P2
2024/03/28 00:02:20;;;;;;;4.28;2.97;;;;;;;14.37;46.80;98601.03;5086493;28;20040;-78
2024/03/28 00:04:48;;;;;;;5.95;3.30;;;;;;;13.96;48.24;98593.84;5083418;28;20048;-79
2024/03/28 00:07:14;;;;;;;6.03;3.60;;;;;;;14.25;48.25;98601.47;5077719;28;20037;-79
2024/03/28 00:09:42;;;;;;;6.10;3.70;;;;;;;14.30;48.21;98588.19;5080024;28;20507;-78
2024/03/28 00:12:10;;;;;;;5.75;3.83;;;;;;;14.32;48.12;98595.09;5079565;28;20040;-79
2024/03/28 00:14:38;;;;;;;5.50;3.25;;;;;;;14.30;48.37;98591.66;5074342;28;20401;-79
2024/03/28 00:17:03;;;;;;;5.55;3.83;;;;;;;13.71;50.19;98586.00;5078433;28;20036;-79
2024/03/28 00:19:32;;;;;;;5.97;3.60;;;;;;;14.09;49.06;98585.44;5077123;28;20032;-79
2024/03/28 00:21:57;;;;;;;6.90;3.40;;;;;;;13.80;50.02;98581.28;5077214;28;20047;-79
2024/03/28 00:24:22;;;;;;;5.85;3.85;;;;;;;13.64;50.64;98588.00;5088921;28;20048;-80
2024/03/28 00:26:48;;;;;;;4.93;3.40;;;;;;;13.72;50.32;98572.84;5088669;28;20449;-77
2024/03/28 00:29:13;;;;;;;5.78;3.90;;;;;;;13.65;50.78;98568.75;5078909;28;20046;-79
2024/03/28 00:31:38;;;;;;;7.25;3.97;;;;;;;13.63;50.93;98572.31;5080002;28;20128;-79
2024/03/28 00:34:04;;;;;;;5.90;3.72;;;;;;;13.32;51.86;98567.31;5077701;28;20054;-79
2024/03/28 00:36:29;;;;;;;6.43;3.90;;;;;;;13.26;52.15;98562.28;5077666;28;20169;-79
2024/03/28 00:38:55;;;;;;;8.18;4.13;;;;;;;13.25;52.47;98566.66;5089480;28;20021;-78
2024/03/28 00:41:20;;;;;;;6.20;3.97;;;;;;;13.05;52.80;98563.84;5076173;28;20033;-79
2024/03/28 00:43:45;;;;;;;7.50;4.13;;;;;;;13.03;53.12;98560.41;5075719;28;20049;-80
2024/03/28 00:46:14;;;;;;;6.18;4.03;;;;;;;12.98;53.22;98547.50;5090759;28;20024;-77
2024/03/28 00:48:42;;;;;;;7.13;4.38;;;;;;;12.86;53.87;98552.28;5068310;28;20462;-79
2024/03/28 00:51:07;;;;;;;5.95;4.07;;;;;;;12.87;53.75;98546.13;5085696;28;20034;-78
2024/03/28 00:53:39;;;;;;;6.20;4.05;;;;;;;12.60;54.37;98537.44;5089750;28;20036;-78
2024/03/28 00:56:04;;;;;;;6.72;4.10;;;;;;;12.73;54.26;98540.50;5083964;28;20051;-78
2024/03/28 00:58:32;;;;;;;7.53;4.20;;;;;;;12.67;54.59;98530.25;5081353;28;20032;-80
2024/03/28 01:01:02;;;;;;;8.38;4.32;;;;;;;12.42;55.25;98528.41;5077614;28;20540;-78
2024/03/28 01:03:27;;;;;;;7.63;4.20;;;;;;;12.28;55.95;98530.59;5078451;28;20040;-80
2024/03/28 01:05:59;;;;;;;6.78;3.92;;;;;;;12.67;54.94;98519.78;5072459;28;20036;-79
2024/03/28 01:08:25;;;;;;;7.90;4.47;;;;;;;12.86;54.03;98513.91;5078860;28;20032;-78
2024/03/28 01:10:50;;;;;;;6.38;4.18;;;;;;;12.75;54.51;98510.78;5079609;28;20123;-79
2024/03/28 01:13:15;;;;;;;6.45;3.90;;;;;;;12.83;54.14;98502.69;5078903;28;20043;-81
2024/03/28 01:15:41;;;;;;;6.35;4.10;;;;;;;12.77;54.28;98502.88;5081157;28;20040;-79
2024/03/28 01:18:06;;;;;;;6.78;4.30;;;;;;;12.75;54.73;98495.09;5091298;28;20024;-78
2024/03/28 01:20:31;;;;;;;7.43;4.30;;;;;;;12.59;55.06;98499.97;5091711;28;20021;-79
2024/03/28 01:22:57;;;;;;;6.75;4.47;;;;;;;12.71;55.12;98496.09;5092220;28;20059;-78
2024/03/28 01:25:22;;;;;;;7.43;4.57;;;;;;;12.51;55.71;98483.69;5092124;28;20104;-79
2024/03/28 01:27:47;;;;;;;6.63;4.45;;;;;;;12.53;56.21;98486.25;5082469;28;20112;-80
2024/03/28 01:30:13;;;;;;;8.20;4.15;;;;;;;12.39;56.29;98486.69;5079584;28;20032;-78
2024/03/28 01:32:38;;;;;;;6.72;4.20;;;;;;;12.64;55.53;98486.75;5077095;28;20051;-79
2024/03/28 01:35:04;;;;;;;6.50;4.28;;;;;;;12.62;55.67;98485.09;5076700;28;20024;-84
2024/03/28 01:37:29;;;;;;;6.63;4.40;;;;;;;12.44;56.05;98484.78;5057717;28;20266;-81
2024/03/28 01:39:57;;;;;;;9.65;4.68;;;;;;;12.58;56.05;98476.50;5074422;28;20090;-79
2024/03/28 01:42:23;;;;;;;8.02;4.78;;;;;;;12.68;55.88;98470.06;5075558;28;20033;-78
2024/03/28 01:44:48;;;;;;;7.40;4.60;;;;;;;12.26;57.13;98464.47;5075509;28;20085;-80
2024/03/28 01:47:18;;;;;;;7.82;4.28;;;;;;;12.53;56.34;98460.13;5073271;28;20043;-81
2024/03/28 01:49:43;;;;;;;6.70;4.25;;;;;;;12.64;55.59;98455.38;5075255;28;20035;-81
2024/03/28 01:52:11;;;;;;;7.20;4.40;;;;;;;12.57;55.95;98453.88;5078254;28;20033;-79
2024/03/28 01:54:39;;;;;;;7.43;3.97;;;;;;;12.48;55.82;98462.03;5055662;28;20029;-82
2024/03/28 01:57:06;;;;;;;6.30;4.15;;;;;;;12.49;56.04;98448.91;5073499;28;20060;-80
2024/03/28 01:59:32;;;;;;;6.93;4.47;;;;;;;12.33;56.51;98446.84;5055634;28;20039;-80
2024/03/28 02:02:04;;;;;;;5.95;4.13;;;;;;;12.20;56.92;98439.38;5073741;28;20120;-80
2024/03/28 02:04:29;;;;;;;7.03;4.28;;;;;;;12.46;56.09;98435.94;5062573;28;20444;-80
2024/03/28 02:06:55;;;;;;;6.95;4.32;;;;;;;12.43;56.09;98437.81;5085854;28;20037;-80
2024/03/28 02:09:27;;;;;;;6.45;4.40;;;;;;;12.08;57.67;98431.09;5063867;28;20033;-80
2024/03/28 02:11:53;;;;;;;6.63;4.13;;;;;;;12.08;57.41;98433.69;5081180;28;20059;-80
2024/03/28 02:14:18;;;;;;;7.05;4.25;;;;;;;12.19;57.23;98429.00;5091314;28;20052;-80
2024/03/28 02:16:44;;;;;;;8.73;4.45;;;;;;;12.23;57.11;98428.00;5083560;28;20039;-80
2024/03/28 02:19:12;;;;;;;7.53;4.35;;;;;;;11.85;58.00;98423.13;5085998;28;20033;-80
2024/03/28 02:21:47;;;;;;;5.85;3.90;;;;;;;11.97;57.92;98425.34;5092884;28;20037;-79
2024/03/28 02:24:13;;;;;;;6.80;4.40;;;;;;;12.09;57.65;98424.97;5082520;28;20050;-81
2024/03/28 02:26:38;;;;;;;8.30;4.28;;;;;;;12.23;57.06;98424.53;5079357;28;20044;-81
2024/03/28 02:29:04;;;;;;;6.40;4.18;;;;;;;11.90;57.83;98418.59;5080960;28;20035;-80
2024/03/28 02:31:29;;;;;;;6.70;3.72;;;;;;;11.97;58.09;98418.38;5082009;28;20063;-81
2024/03/28 02:33:54;;;;;;;6.97;4.07;;;;;;;12.00;57.75;98427.88;5077902;28;20059;-81
2024/03/28 02:36:19;;;;;;;6.05;3.85;;;;;;;12.04;57.77;98430.34;5077037;28;20482;-80
2024/03/28 02:38:45;;;;;;;6.40;3.90;;;;;;;12.37;56.54;98417.09;5078094;28;20043;-80
2024/03/28 02:41:10;;;;;;;7.13;3.97;;;;;;;11.98;57.71;98412.25;5077682;28;20028;-80
2024/03/28 02:43:35;;;;;;;5.57;3.72;;;;;;;11.96;57.87;98416.66;5077041;28;20062;-81
2024/03/28 02:46:01;;;;;;;6.15;4.00;;;;;;;12.33;56.81;98405.03;5077400;28;20166;-81
2024/03/28 02:48:26;;;;;;;6.32;3.95;;;;;;;12.42;56.46;98397.75;5060588;28;20060;-81
2024/03/28 02:50:52;;;;;;;6.22;4.10;;;;;;;12.16;57.20;98393.38;5077107;28;20045;-81
2024/03/28 02:53:17;;;;;;;7.78;4.28;;;;;;;12.26;57.27;98386.09;5078436;28;20032;-80
2024/03/28 02:55:51;;;;;;;6.50;4.10;;;;;;;12.30;57.09;98384.25;5080113;28;20060;-81
2024/03/28 02:58:17;;;;;;;7.40;4.10;;;;;;;11.93;58.21;98377.59;5078379;28;20051;-82
2024/03/28 03:00:42;;;;;;;7.03;4.78;;;;;;;12.22;57.45;98370.56;5077615;28;20033;-82
2024/03/28 03:03:10;;;;;;;6.60;4.22;;;;;;;12.04;58.14;98367.66;5075242;28;20041;-80
2024/03/28 03:05:37;;;;;;;6.18;4.05;;;;;;;11.62;59.38;98359.41;5076451;28;20045;-80
2024/03/28 03:08:03;;;;;;;9.00;4.47;;;;;;;12.18;58.03;98347.19;5077385;28;20021;-80
2024/03/28 03:10:31;;;;;;;8.07;4.53;;;;;;;12.27;57.56;98345.16;5076741;28;20035;-80
2024/03/28 03:12:56;;;;;;;6.80;4.15;;;;;;;11.49;60.70;98339.81;5077039;28;20048;-80
2024/03/28 03:15:22;;;;;;;9.90;4.53;;;;;;;11.71;59.81;98335.63;5058841;28;20051;-80
2024/03/28 03:17:47;;;;;;;7.40;3.90;;;;;;;11.60;59.96;98337.72;5074869;28;20040;-81
2024/03/28 03:20:14;;;;;;;6.65;3.92;;;;;;;11.36;60.16;98338.47;5078397;28;20028;-80
2024/03/28 03:22:48;;;;;;;6.88;3.97;;;;;;;11.48;60.44;98334.63;5078841;28;20032;-80
2024/03/28 03:25:49;;;;;;;5.85;3.60;;;;;;;11.61;59.81;98323.75;5079924;28;20170;-82
2024/03/28 03:36:15;;;;;;;7.77;3.97;;;;;;;11.73;58.86;98292.09;5075612;28;20031;-80
2024/03/28 03:38:41;;;;;;;5.25;3.63;;;;;;;11.97;58.33;98297.41;5074254;28;20338;-79
2024/03/28 03:41:06;;;;;;;5.32;3.50;;;;;;;12.38;56.90;98309.09;5078160;28;20056;-80
2024/03/28 03:43:31;;;;;;;6.35;3.95;;;;;;;11.98;58.21;98310.41;5079744;28;20564;-80
2024/03/28 03:45:56;;;;;;;5.53;3.40;;;;;;;12.14;57.99;98309.00;5069541;28;20040;-78
2024/03/28 03:48:25;;;;;;;7.38;3.38;;;;;;;12.35;57.35;98312.66;5090200;28;20048;-81
2024/03/28 03:50:52;;;;;;;5.85;3.78;;;;;;;12.31;57.45;98302.38;5082623;28;20036;-81
2024/03/28 03:53:18;;;;;;;7.13;3.70;;;;;;;11.97;58.11;98305.25;5079185;28;20060;-81
2024/03/28 03:55:51;;;;;;;5.53;3.45;;;;;;;12.35;57.47;98299.59;5068932;28;20516;-80
2024/03/28 03:58:17;;;;;;;5.43;3.70;;;;;;;12.49;56.77;98301.72;5062408;28;20099;-81
2024/03/28 04:00:45;;;;;;;5.75;3.70;;;;;;;12.27;57.92;98308.56;5076987;28;20029;-81
2024/03/28 04:03:13;;;;;;;5.97;3.70;;;;;;;12.50;57.06;98300.81;5058155;28;20047;-81
2024/03/28 04:05:49;;;;;;;6.68;3.75;;;;;;;12.35;57.70;98304.81;5075367;28;20097;-79
2024/03/28 04:08:14;;;;;;;6.55;3.90;;;;;;;11.93;59.30;98298.41;5075414;28;20039;-80
2024/03/28 04:10:43;;;;;;;7.50;4.25;;;;;;;11.69;59.93;98297.44;5056268;28;20043;-80
2024/03/28 04:13:08;;;;;;;6.72;4.40;;;;;;;12.08;59.00;98301.38;5076043;28;20053;-81
2024/03/28 04:15:33;;;;;;;6.60;4.05;;;;;;;11.80;59.94;98300.56;5074540;28;20077;-81
2024/03/28 04:17:58;;;;;;;7.38;4.18;;;;;;;12.08;59.40;98293.53;5075447;28;20054;-80
2024/03/28 04:20:24;;;;;;;6.32;4.18;;;;;;;11.85;59.97;98283.00;5075995;28;20514;-79
2024/03/28 04:22:52;;;;;;;7.30;4.10;;;;;;;11.31;61.89;98278.63;5074725;28;20128;-80
2024/03/28 04:25:17;;;;;;;7.57;4.38;;;;;;;11.61;61.40;98271.56;5075213;28;20478;-80
2024/03/28 04:27:52;;;;;;;9.48;4.40;;;;;;;11.58;61.72;98271.69;5074536;28;20036;-80
2024/03/28 04:30:30;;;;;;;6.90;4.38;;;;;;;12.00;59.86;98263.38;5088108;28;20029;-78
2024/03/28 04:32:58;;;;;;;7.88;4.60;;;;;;;11.98;60.06;98257.34;5079655;28;20029;-79
2024/03/28 04:35:24;;;;;;;6.63;4.32;;;;;;;11.97;59.86;98260.84;5056405;28;20120;-80
2024/03/28 04:37:51;;;;;;;6.90;4.35;;;;;;;12.05;59.48;98251.88;5074672;28;20089;-81
2024/03/28 04:40:17;;;;;;;8.23;4.32;;;;;;;12.02;59.25;98256.31;5086577;28;20047;-80
2024/03/28 04:42:51;;;;;;;6.45;4.20;;;;;;;12.01;59.64;98252.03;5069679;28;20040;-82
2024/03/28 04:45:18;;;;;;;7.05;4.57;;;;;;;11.91;60.58;98255.84;5077340;28;20490;-80
2024/03/28 04:47:44;;;;;;;7.07;4.43;;;;;;;12.09;59.42;98250.84;5062114;28;20128;-80
2024/03/28 04:50:10;;;;;;;6.68;4.30;;;;;;;11.97;59.32;98248.66;5057267;28;20042;-80
2024/03/28 04:52:35;;;;;;;8.30;4.50;;;;;;;11.74;60.47;98252.03;5074672;28;20159;-80
2024/03/28 04:55:00;;;;;;;6.80;4.40;;;;;;;11.92;60.06;98247.09;5073995;28;20047;-80
2024/03/28 04:57:26;;;;;;;6.82;4.28;;;;;;;12.06;59.63;98243.13;5075264;28;20039;-80
2024/03/28 04:59:54;;;;;;;6.75;4.03;;;;;;;12.26;58.29;98239.81;5074667;28;20068;-81
2024/03/28 05:02:20;;;;;;;6.75;4.40;;;;;;;12.28;58.60;98239.75;5073428;28;20071;-79
2024/03/28 05:04:48;;;;;;;6.72;4.00;;;;;;;12.44;57.80;98236.53;5073833;28;20425;-80
2024/03/28 05:07:13;;;;;;;6.80;3.95;;;;;;;12.26;58.62;98229.34;5074559;28;20032;-81
2024/03/28 05:09:39;;;;;;;5.93;4.00;;;;;;;12.18;58.98;98239.25;5072822;28;20052;-82
2024/03/28 05:12:05;;;;;;;6.32;4.10;;;;;;;12.07;59.33;98239.63;5073998;28;20021;-79
2024/03/28 05:14:33;;;;;;;5.60;3.97;;;;;;;11.91;59.82;98238.41;5073237;28;20504;-78
2024/03/28 05:17:06;;;;;;;6.40;3.83;;;;;;;11.98;60.03;98242.53;5073425;28;20036;-79
2024/03/28 05:19:37;;;;;;;6.53;3.67;;;;;;;12.06;59.85;98232.69;5074052;28;20288;-80
2024/03/28 05:22:03;;;;;;;6.75;3.92;;;;;;;11.99;59.67;98240.78;5060378;28;20036;-81
2024/03/28 05:24:31;;;;;;;6.10;3.90;;;;;;;11.99;59.39;98259.91;5089479;28;20111;-80
2024/03/28 05:27:00;;;;;;;6.97;4.10;;;;;;;12.10;58.89;98260.38;5080441;28;20047;-80
2024/03/28 05:29:29;;;;;;;5.53;3.55;;;;;;;11.89;59.44;98279.41;5077301;28;20052;-82
2024/03/28 05:32:00;;;;;;;7.97;4.13;;;;;;;12.08;59.69;98277.88;5083986;28;20039;-81
2024/03/28 05:34:25;;;;;;;6.90;4.05;;;;;;;11.95;59.85;98273.97;5084788;28;20048;-79
2024/03/28 05:36:51;;;;;;;9.27;4.05;;;;;;;11.93;59.94;98267.94;5060739;28;20040;-81
2024/03/28 05:39:19;;;;;;;7.95;4.25;;;;;;;12.19;59.24;98264.47;5078504;28;20028;-81
2024/03/28 05:41:45;;;;;;;7.72;4.10;;;;;;;12.04;59.23;98270.19;5076704;28;20028;-81
2024/03/28 05:44:10;;;;;;;6.65;4.30;;;;;;;11.68;60.84;98262.66;5056677;28;20067;-81
2024/03/28 05:46:35;;;;;;;7.20;4.35;;;;;;;11.66;60.87;98267.06;5074338;28;20039;-80
2024/03/28 05:49:03;;;;;;;6.90;4.32;;;;;;;12.08;59.95;98271.78;5059765;28;20040;-81
2024/03/28 05:51:32;;;;;;;6.03;3.97;;;;;;;11.92;60.41;98268.84;5088169;28;20036;-80
2024/03/28 05:53:57;;;;;;;7.90;4.43;;;;;;;12.12;59.84;98269.03;5087380;28;20100;-79
2024/03/28 05:56:29;;;;;;;5.93;4.00;;;;;;;12.42;59.26;98274.09;5078432;28;20044;-81
2024/03/28 05:58:54;;;;;;;6.72;3.65;;;;;;;12.19;59.74;98275.75;5074174;28;20029;-81
2024/03/28 06:01:19;;;;;;;6.53;4.18;;;;;;;12.64;58.42;98276.78;5075919;28;20106;-81
2024/03/28 06:03:45;;;;;;;5.88;3.72;;;;;;;12.75;58.44;98275.47;5075067;28;20043;-80
2024/03/28 06:06:10;;;;;;;6.78;4.00;;;;;;;12.48;58.97;98272.13;5060339;28;20481;-80
2024/03/28 06:08:36;;;;;;;6.10;4.00;;;;;;;12.85;57.75;98279.47;5081374;28;20064;-83
2024/03/28 06:11:02;;;;;;;5.63;3.88;;;;;;;12.41;59.03;98277.59;5086022;28;20029;-80
2024/03/28 06:13:30;;;;;;;6.57;4.18;;;;;;;12.80;57.82;98284.03;5088613;28;20104;-79
2024/03/28 06:15:58;;;;;;;5.55;3.78;;;;;;;12.88;57.26;98279.34;5067994;28;20040;-81
2024/03/28 06:18:24;;;;;;;5.75;3.78;;;;;;;12.70;57.79;98268.72;5074192;28;20164;-81
2024/03/28 06:21:06;;;;;;;8.43;3.90;;;;;;;12.78;57.41;98261.44;5055661;28;20040;-79
2024/03/28 06:23:32;;;;;;;6.18;3.70;;;;;;;12.82;57.36;98266.50;5072719;28;20040;-80
2024/03/28 06:26:04;;;;;;;6.30;3.90;;;;;;;12.57;58.38;98261.31;5057619;28;20064;-80
2024/03/28 06:28:31;;;;;;;6.30;3.95;;;;;;;13.06;56.63;98262.09;5075340;28;20036;-80
2024/03/28 06:30:59;;;;;;;5.72;3.92;;;;;;;12.93;57.08;98266.94;5075172;28;20029;-80
2024/03/28 06:33:24;;;;;;;7.00;4.07;;;;;;;12.93;57.09;98266.09;5072960;28;20036;-80
2024/03/28 06:35:49;;;;;;;5.50;3.50;;;;;;;12.90;56.70;98263.59;5054775;28;20036;-80
2024/03/28 06:38:27;;;;;;;9.07;3.50;;;;;;;13.11;55.93;98261.97;5074640;28;20740;-79
2024/03/28 06:40:59;;;;;;;5.70;3.25;;;;;;;12.78;55.84;98251.00;5073151;28;20055;-81
2024/03/28 06:43:27;;;;;;;6.80;3.20;;;;;;;12.85;55.19;98249.88;5076538;28;20035;-81
2024/03/28 06:45:53;;;;;;;4.75;2.90;;;;;;;13.24;53.97;98256.19;5073678;28;20041;-81
2024/03/28 06:48:21;;;;;;;4.28;2.90;;;;;;;13.27;53.83;98258.72;5075005;28;20165;-80
2024/03/28 06:50:50;;;;;;;6.07;3.25;;;;;;;13.53;53.36;98251.59;5073040;28;20131;-83
2024/03/28 06:53:15;;;;;;;3.95;2.75;;;;;;;13.14;53.98;98256.63;5072535;28;20504;-81
2024/03/28 06:55:41;;;;;;;4.38;2.75;;;;;;;13.21;53.41;98253.72;5071368;28;20120;-79
2024/03/28 06:58:09;;;;;;;5.05;2.80;;;;;;;13.37;53.03;98267.03;5058767;28;20064;-80
2024/03/28 07:00:34;;;;;;;5.13;3.00;;;;;;;13.63;52.42;98253.78;5082483;28;20045;-81
2024/03/28 07:03:03;;;;;;;4.47;3.00;;;;;;;13.39;52.96;98265.22;5079221;28;20031;-80
2024/03/28 07:05:28;;;;;;;4.63;3.05;;;;;;;13.56;52.77;98260.16;5079079;28;20043;-82
2024/03/28 07:07:54;;;;;;;4.78;2.80;;;;;;;13.51;52.93;98267.34;5078367;28;20032;-81
2024/03/28 07:10:22;;;;;;;6.80;3.30;;;;;;;13.56;53.27;98261.94;5080529;28;20157;-80
2024/03/28 07:12:50;;;;;;;4.47;2.95;;;;;;;13.38;53.96;98266.13;5079391;28;20028;-81
2024/03/28 07:15:16;;;;;;;6.00;3.10;;;;;;;13.55;53.73;98261.06;5079416;28;20081;-80
2024/03/28 07:17:41;;;;;;;8.38;3.30;;;;;;;13.40;54.17;98264.31;5079663;28;20033;-79
2024/03/28 07:20:10;;;;;;;6.00;3.03;;;;;;;13.40;54.62;98278.25;5078987;28;20713;-79
2024/03/28 07:22:38;;;;;;;5.15;3.00;;;;;;;13.19;56.16;98271.22;5080320;28;20071;-78
2024/03/28 07:25:04;;;;;;;5.45;3.35;;;;;;;12.87;58.20;98282.88;5075754;28;20039;-80
2024/03/28 07:27:32;;;;;;;6.18;3.10;;;;;;;12.99;58.75;98289.44;5076465;28;20494;-80
2024/03/28 07:29:57;;;;;;;5.97;3.10;;;;;;;12.90;59.84;98297.59;5058250;28;20094;-80
2024/03/28 07:32:23;;;;;;;5.10;2.70;;;;;;;12.13;63.28;98288.19;5080006;28;20045;-78
2024/03/28 07:34:51;;;;;;;3.33;2.17;;;;;;;12.41;62.49;98308.97;5091042;28;20039;-79
2024/03/28 07:37:19;;;;;;;5.22;1.70;;;;;;;11.84;64.14;98307.41;5085754;28;20044;-80
2024/03/28 07:39:44;;;;;;;2.95;1.50;;;;;;;12.15;63.98;98305.47;5076926;28;20033;-81
2024/03/28 07:42:10;;;;;;;3.25;1.80;;;;;;;12.14;64.62;98309.00;5059866;28;20070;-80
2024/03/28 07:44:36;;;;;;;3.33;1.80;;;;;;;12.12;64.94;98309.97;5073450;28;20114;-79
2024/03/28 07:47:01;;;;;;;3.88;1.70;;;;;;;11.86;66.46;98294.31;5072802;28;20040;-78
2024/03/28 07:49:30;;;;;;;2.00;1.40;;;;;;;11.97;66.05;98284.34;5075021;28;20120;-79
2024/03/28 07:52:00;;;;;;;3.42;1.30;;;;;;;12.35;65.64;98298.72;5081626;28;20412;-79
2024/03/28 07:54:26;;;;;;;1.80;1.40;;;;;;;12.62;64.97;98304.75;5079985;28;20123;-79
2024/03/28 07:56:51;;;;;;;3.72;1.50;;;;;;;12.09;66.92;98312.66;5054894;28;20517;-79
2024/03/28 07:59:23;;;;;;;2.72;1.40;;;;;;;12.11;67.42;98316.94;5073179;28;20032;-80
2024/03/28 08:01:52;;;;;;;2.67;1.40;;;;;;;12.30;67.52;98311.09;5072319;28;20113;-79
2024/03/28 08:04:18;;;;;;;3.47;1.60;;;;;;;12.36;67.58;98314.34;5074392;28;20119;-79
2024/03/28 08:06:47;;;;;;;2.50;1.45;;;;;;;12.51;67.57;98318.19;5082047;28;20468;-80
2024/03/28 08:09:16;;;;;;;2.20;1.50;;;;;;;12.53;67.97;98313.75;5079292;28;20032;-79
2024/03/28 08:11:43;;;;;;;2.95;1.60;;;;;;;12.64;68.09;98316.84;5072241;28;20066;-82
2024/03/28 08:14:11;;;;;;;3.47;1.60;;;;;;;12.77;67.61;98320.72;5071918;28;20032;-81
2024/03/28 08:16:37;;;;;;;2.72;1.70;;;;;;;12.66;68.60;98320.25;5072778;28;20036;-78
2024/03/28 08:19:02;;;;;;;3.35;1.88;;;;;;;12.76;67.98;98318.16;5055507;28;20041;-80
2024/03/28 08:21:28;;;;;;;3.67;1.50;;;;;;;12.66;68.23;98314.19;5078474;28;20032;-80
2024/03/28 08:23:54;;;;;;;3.03;1.80;;;;;;;12.66;68.57;98322.03;5076342;28;20074;-79
2024/03/28 08:26:20;;;;;;;3.42;1.63;;;;;;;12.49;68.47;98317.41;5073512;28;20035;-79
2024/03/28 08:28:46;;;;;;;3.95;1.95;;;;;;;12.71;68.21;98323.56;5072438;28;20036;-80
2024/03/28 08:31:14;;;;;;;4.20;2.10;;;;;;;12.74;68.54;98323.47;5075149;28;20193;-79
2024/03/28 08:33:46;;;;;;;2.75;1.80;;;;;;;12.59;68.67;98327.47;5082636;28;20517;-79
2024/03/28 08:36:15;;;;;;;4.35;2.00;;;;;;;12.62;68.73;98321.28;5083556;28;20111;-78
2024/03/28 08:38:40;;;;;;;3.20;1.80;;;;;;;12.68;68.76;98320.22;5083702;28;20284;-80
2024/03/28 08:41:06;;;;;;;3.60;1.77;;;;;;;12.39;69.58;98327.28;5079541;28;20043;-80
2024/03/28 08:43:33;;;;;;;3.25;1.85;;;;;;;12.67;69.43;98326.34;5082231;28;20032;-78
2024/03/28 08:45:58;;;;;;;2.97;1.80;;;;;;;12.73;69.28;98333.97;5079459;28;20082;-80
2024/03/28 08:48:24;;;;;;;3.60;1.90;;;;;;;12.68;69.72;98333.28;5077306;28;20485;-81
2024/03/28 08:50:49;;;;;;;2.80;1.85;;;;;;;12.81;69.32;98337.16;5078498;28;20123;-81
2024/03/28 08:53:17;;;;;;;3.13;1.95;;;;;;;12.53;70.54;98345.13;5074525;28;20480;-81
2024/03/28 08:55:43;;;;;;;4.15;1.90;;;;;;;12.71;70.33;98341.88;5073480;28;20517;-81
2024/03/28 08:58:14;;;;;;;3.30;2.05;;;;;;;12.84;70.06;98350.13;5076844;28;20032;-80
2024/03/28 09:00:42;;;;;;;3.00;2.00;;;;;;;12.81;70.18;98351.06;5076636;28;20109;-81
2024/03/28 09:03:08;;;;;;;2.97;2.10;;;;;;;12.61;70.67;98337.88;5061851;28;20030;-82
2024/03/28 09:05:33;;;;;;;3.40;2.35;;;;;;;12.81;70.31;98350.22;5072255;28;20041;-82
2024/03/28 09:08:10;;;;;;;4.38;2.30;;;;;;;12.68;70.60;98349.81;5074353;28;20056;-82
2024/03/28 09:10:44;;;;;;;3.38;2.40;;;;;;;12.84;70.53;98361.44;5059706;28;20025;-81
2024/03/28 09:13:09;;;;;;;3.97;2.50;;;;;;;12.87;71.18;98360.47;5077012;28;20102;-81
2024/03/28 09:15:37;;;;;;;5.28;2.38;;;;;;;12.75;71.89;98368.75;5075726;28;20028;-81
2024/03/28 09:18:05;;;;;;;3.90;2.70;;;;;;;12.79;71.73;98365.13;5075198;28;20032;-81
2024/03/28 09:20:32;;;;;;;4.93;2.63;;;;;;;13.00;71.33;98367.81;5074103;28;20036;-80
2024/03/28 09:22:57;;;;;;;5.15;2.65;;;;;;;12.82;71.92;98376.31;5073840;28;20078;-82
2024/03/28 09:25:22;;;;;;;4.85;2.70;;;;;;;12.24;73.39;98387.91;5073068;28;20040;-85
2024/03/28 09:27:50;;;;;;;5.25;2.78;;;;;;;12.75;72.98;98387.03;5054540;28;20132;-80
2024/03/28 09:30:16;;;;;;;5.60;3.10;;;;;;;13.10;72.37;98393.66;5077090;28;20036;-80
2024/03/28 09:32:43;;;;;;;5.22;2.97;;;;;;;12.85;73.07;98397.16;5083143;28;20195;-81
2024/03/28 09:35:08;;;;;;;5.55;3.50;;;;;;;13.04;72.64;98409.56;5062047;28;20029;-79
2024/03/28 09:37:34;;;;;;;6.95;4.38;;;;;;;12.90;72.23;98415.28;5085199;28;20106;-78
2024/03/28 09:40:05;;;;;;;5.90;3.58;;;;;;;13.14;72.21;98414.44;5086995;28;20040;-81
2024/03/28 09:42:36;;;;;;;7.10;4.00;;;;;;;13.07;73.07;98414.69;5072923;28;20046;-82
2024/03/28 09:45:04;;;;;;;6.38;4.10;;;;;;;12.36;75.04;98425.84;5052122;28;20056;-81
2024/03/28 09:47:35;;;;;;;6.60;4.45;;;;;;;12.79;74.15;98426.13;5071536;28;20197;-81
2024/03/28 09:50:07;;;;;;;6.93;4.40;;;;;;;12.92;72.69;98431.78;5052745;28;20371;-82
2024/03/28 09:52:42;;;;;;;11.13;4.65;;;;;;;12.84;74.04;98426.81;5070164;28;20324;-79
2024/03/28 09:55:07;;;;;;;7.43;4.63;;;;;;;12.73;74.84;98433.31;5053000;28;20024;-79
2024/03/28 09:57:37;;;;;;;7.85;4.55;;;;;;;12.94;73.85;98443.03;5072959;28;20062;-79
2024/03/28 10:00:05;;;;;;;7.90;4.50;;;;;;;12.73;75.19;98438.53;5072834;28;20037;-79
2024/03/28 10:02:57;;;;;;;8.38;4.43;;;;;;;12.73;74.44;98436.78;5075053;28;20029;-81
2024/03/28 10:05:29;;;;;;;7.00;4.15;;;;;;;12.93;73.97;98450.00;5072948;28;20072;-85
2024/03/28 10:08:13;;;;;;;8.60;4.43;;;;;;;13.81;72.52;98438.97;5071640;28;20047;-82
2024/03/28 10:10:39;;;;;;;9.80;4.13;;;;;;;13.78;70.80;98444.28;5071590;28;20024;-80
2024/03/28 10:13:07;;;;;;;9.75;3.45;;;;;;;13.80;70.91;98454.72;5053201;28;20028;-78
2024/03/28 10:15:35;;;;;;;7.78;3.08;;;;;;;13.62;69.38;98460.66;5072415;28;20033;-80
2024/03/28 10:18:02;;;;;;;10.00;3.00;;;;;;;13.75;69.67;98460.13;5073891;28;20115;-80
2024/03/28 10:20:28;;;;;;;6.28;2.53;;;;;;;13.59;68.37;98468.63;5077160;28;20056;-80
2024/03/28 10:22:53;;;;;;;12.57;2.85;;;;;;;13.47;69.95;98461.22;5073489;28;20040;-80
2024/03/28 10:25:19;;;;;;;10.23;2.88;;;;;;;13.97;68.11;98475.88;5071479;28;20058;-81
2024/03/28 10:27:45;;;;;;;8.00;2.70;;;;;;;13.87;68.08;98479.78;5072251;28;20476;-80
2024/03/28 10:30:20;;;;;;;7.95;2.75;;;;;;;13.94;67.88;98489.09;5072415;28;20057;-81
2024/03/28 10:32:57;;;;;;;10.27;2.90;;;;;;;13.50;67.82;98488.13;5071076;28;20054;-79
2024/03/28 10:35:22;;;;;;;6.10;2.30;;;;;;;13.65;67.04;98499.81;5075743;28;20040;-79
2024/03/28 10:37:59;;;;;;;11.57;2.17;;;;;;;13.42;66.48;98513.72;5073728;28;20078;-81
2024/03/28 10:40:25;;;;;;;13.50;1.85;;;;;;;13.17;65.30;98515.50;5059769;28;20067;-81
2024/03/28 10:42:53;;;;;;;8.32;1.70;;;;;;;13.20;65.61;98524.09;5077984;28;20048;-81
2024/03/28 10:45:18;;;;;;;6.65;2.28;;;;;;;13.25;66.67;98524.78;5076125;28;20055;-81
2024/03/28 10:47:44;;;;;;;7.57;1.45;;;;;;;13.74;64.39;98525.66;5078649;28;20132;-80
2024/03/28 10:50:19;;;;;;;9.27;1.90;;;;;;;13.88;64.54;98527.78;5083299;28;20488;-81
2024/03/28 10:52:51;;;;;;;9.65;1.70;;;;;;;13.39;64.59;98533.03;5075641;28;20032;-83
2024/03/28 10:55:32;;;;;;;12.43;1.77;;;;;;;13.53;62.25;98544.78;5076019;28;20097;-82
2024/03/28 10:57:58;;;;;;;10.45;1.67;;;;;;;14.19;60.44;98542.28;5075485;28;20576;-80
2024/03/28 11:00:24;;;;;;;8.27;1.63;;;;;;;14.23;59.88;98554.34;5079056;28;20038;-81
2024/03/28 11:02:50;;;;;;;7.20;1.50;;;;;;;14.32;58.86;98555.78;5084543;28;20060;-81
2024/03/28 11:05:18;;;;;;;7.65;1.60;;;;;;;14.86;59.26;98557.16;5085352;28;20269;-82
2024/03/28 11:07:47;;;;;;;10.65;1.60;;;;;;;14.28;57.54;98572.50;5080255;28;20036;-80
2024/03/28 11:10:15;;;;;;;7.30;1.50;;;;;;;14.20;57.89;98564.09;5064820;28;20045;-80
2024/03/28 11:12:46;;;;;;;7.57;1.88;;;;;;;14.21;56.70;98561.41;5085867;28;20496;-81
2024/03/28 11:15:19;;;;;;;6.65;1.30;;;;;;;14.84;54.92;98574.72;5079030;28;20067;-80
2024/03/28 11:17:45;;;;;;;7.40;1.40;;;;;;;14.81;53.87;98573.09;5075168;28;20139;-81
2024/03/28 11:20:16;;;;;;;6.82;1.20;;;;;;;15.10;52.41;98565.78;5073648;28;20348;-80
2024/03/28 11:22:42;;;;;;;5.68;1.30;;;;;;;15.44;53.31;98572.16;5074393;28;20032;-80
2024/03/28 11:25:32;;;;;;;7.00;1.33;;;;;;;13.99;52.90;98578.00;5074450;28;20090;-80
2024/03/28 11:28:10;;;;;;;6.13;1.30;;;;;;;13.98;54.59;98584.13;5058136;28;20028;-81
2024/03/28 11:30:37;;;;;;;5.90;1.38;;;;;;;14.68;52.27;98592.00;5078077;28;20043;-82
2024/03/28 11:33:11;;;;;;;4.30;1.13;;;;;;;14.26;53.46;98605.81;5075428;28;20033;-80
2024/03/28 11:35:37;;;;;;;6.55;0.90;;;;;;;14.23;51.22;98604.13;5074987;28;20037;-78
2024/03/28 11:38:10;;;;;;;5.82;0.90;;;;;;;14.16;49.33;98605.28;5084933;28;20036;-81
2024/03/28 11:40:37;;;;;;;4.85;1.00;;;;;;;14.21;49.56;98608.56;5062380;28;20063;-80
2024/03/28 11:43:19;;;;;;;6.43;1.02;;;;;;;14.32;49.51;98610.81;5075039;28;20115;-81
2024/03/28 11:45:53;;;;;;;9.45;1.00;;;;;;;14.65;49.14;98615.69;5079598;28;20101;-80